SNCO2: N. Canadian River at Shawnee, OK

Data processed at Thu Jan 04 2018 23:59


All information presented herein is the property of the government of the United States of America and may be revised or deleted at any time without prior notice.
Dissemination of this information without the expressed written consent of the Public Affairs Office, Tulsa District U.S. Army Corps of Engineers is strictly prohibited.
These data are gathered electronically and, as presented, have not undergone any form of quality control. These data are not guaranteed to be valid or correct.
Go to home page.
Go to station list.

Upstream stations:

Downstream station:
Previous Day
Next Day
Current Day
    
SHEF ID:       SNCO2     North Canadian River at Shawnee,
STATION TYPE:  

                STAGE  RIV-FLOW  BAT-LOAD
                   ft       cfs      volt
              Ccp-Rev   Ccp-Rev   Ccp-Rev
(US/Central)
01/02 00:00      9.34       117     12.65
01/02 01:00      9.34       117     12.65
01/02 02:00      9.32       113     12.65
01/02 03:00      9.30       108     12.60
01/02 04:00      9.28       104     12.60
01/02 05:00      9.28       104     12.54
01/02 06:00      9.24        96     12.54
01/02 07:00      9.19        87     12.54
01/02 08:00      9.16        81     12.48
01/02 09:00      9.15        80     12.54
01/02 10:00      9.17        83     12.83
01/02 11:00      9.20        89     13.18
01/02 12:00      9.24        96     13.53
01/02 13:00      9.26       100     13.48
01/02 14:00      9.29       106     13.48
01/02 15:00      9.32       113     13.48
01/02 16:00      9.38       126     13.48
01/02 17:00      9.43       138     13.24
01/02 18:00      9.49       153     13.07
01/02 19:00      9.53       164     12.89
01/02 20:00      9.57       175     12.83
01/02 21:00      9.58       178     12.77
01/02 22:00      9.60       183     12.71
01/02 23:00      9.61       186     12.71